Time;durP1;ratioP1;P1;durP2;ratioP2;P2;SDS_P1;SDS_P2;PMS_P1;PMS_P2;Temp;Humidity;BMP_temperature;BMP_pressure;BME280_temperature;BME280_humidity;BME280_pressure;Samples;Min_cycle;Max_cycle;Signal;HPM_P1;HPM_P2
2021/03/31 00:01:23;;;;;;;53.90;24.52;;;;;;;11.28;59.43;102512.38;4981992;28;20053;-67
2021/03/31 00:03:49;;;;;;;45.00;23.30;;;;;;;11.41;58.12;102511.44;4987180;28;20054;-67
2021/03/31 00:06:15;;;;;;;48.25;24.63;;;;;;;11.44;57.97;102504.03;4985161;28;20397;-68
2021/03/31 00:08:42;;;;;;;49.15;23.27;;;;;;;11.50;58.32;102508.03;4986921;28;20073;-68
2021/03/31 00:11:08;;;;;;;50.65;23.80;;;;;;;11.50;58.63;102505.38;4967421;28;20536;-68
2021/03/31 00:13:34;;;;;;;48.60;23.70;;;;;;;11.48;57.69;102491.28;4981918;28;20062;-68
2021/03/31 00:15:59;;;;;;;51.08;25.15;;;;;;;11.57;57.15;102506.63;4983211;28;20523;-69
2021/03/31 00:18:26;;;;;;;44.97;23.52;;;;;;;11.62;56.77;102498.22;4983173;28;20038;-67
2021/03/31 00:20:52;;;;;;;52.38;24.45;;;;;;;11.67;56.30;102488.03;4983592;28;20077;-69
2021/03/31 00:23:21;;;;;;;51.67;24.25;;;;;;;11.58;56.10;102470.88;4982551;28;20057;-69
2021/03/31 00:25:47;;;;;;;48.22;23.35;;;;;;;11.77;55.31;102488.16;4995327;28;20481;-68
2021/03/31 00:28:13;;;;;;;48.17;24.58;;;;;;;11.79;55.53;102487.06;4984491;28;20026;-68
2021/03/31 00:30:40;;;;;;;47.83;24.40;;;;;;;11.84;55.18;102484.03;4982297;28;20322;-69
2021/03/31 00:33:06;;;;;;;49.97;24.88;;;;;;;11.83;54.64;102484.13;4986612;28;20057;-68
2021/03/31 00:35:31;;;;;;;48.63;24.75;;;;;;;11.53;55.78;102443.66;4981469;28;20063;-69
2021/03/31 00:37:57;;;;;;;51.17;25.00;;;;;;;11.61;56.79;102465.28;4979387;28;20408;-69
2021/03/31 00:40:26;;;;;;;48.00;23.65;;;;;;;11.61;55.74;102467.94;4983071;28;20034;-69
2021/03/31 00:42:51;;;;;;;51.22;24.98;;;;;;;11.54;57.92;102480.13;4983648;28;20115;-67
2021/03/31 00:45:17;;;;;;;53.13;25.77;;;;;;;11.53;56.31;102474.91;4988488;28;21011;-67
2021/03/31 00:47:43;;;;;;;51.10;25.40;;;;;;;11.54;57.59;102466.75;4979134;28;20129;-67
2021/03/31 00:50:15;;;;;;;53.47;25.88;;;;;;;11.48;56.78;102454.72;4984330;28;20073;-67
2021/03/31 00:52:42;;;;;;;55.30;26.45;;;;;;;11.53;55.74;102465.03;4982383;28;20042;-66
2021/03/31 00:55:09;;;;;;;55.50;26.75;;;;;;;11.54;56.73;102466.75;4984664;28;20080;-69
2021/03/31 00:57:35;;;;;;;52.08;26.08;;;;;;;11.49;56.89;102456.41;4984966;28;20037;-69
2021/03/31 01:00:01;;;;;;;51.65;26.65;;;;;;;11.51;56.25;102458.97;4981524;28;20031;-69
2021/03/31 01:02:27;;;;;;;52.75;26.73;;;;;;;11.53;55.79;102451.66;4979616;28;20504;-67
2021/03/31 01:04:53;;;;;;;54.95;25.80;;;;;;;11.55;56.25;102448.88;4977745;28;20046;-69
2021/03/31 01:07:18;;;;;;;53.20;26.95;;;;;;;11.54;55.81;102444.50;4982604;28;20031;-69
2021/03/31 01:09:44;;;;;;;53.00;26.65;;;;;;;11.25;56.45;102408.38;4983946;28;20041;-68
2021/03/31 01:12:22;;;;;;;52.95;26.73;;;;;;;11.36;58.32;102434.28;4979818;28;20038;-68
2021/03/31 01:15:11;;;;;;;;;;;;;;;11.18;59.07;102428.53;4987714;28;20023;-68
2021/03/31 01:18:01;;;;;;;47.78;25.60;;;;;;;11.05;59.32;102427.78;4982213;28;19917;-66
2021/03/31 01:20:48;;;;;;;50.92;26.42;;;;;;;11.02;57.99;102424.38;4971737;28;20029;-67
2021/03/31 01:23:42;;;;;;;52.80;26.80;;;;;;;10.96;57.97;102430.19;4980612;28;20145;-67
2021/03/31 01:26:19;;;;;;;55.90;27.60;;;;;;;10.93;59.58;102426.91;4985161;28;20038;-69
2021/03/31 01:28:55;;;;;;;54.53;25.95;;;;;;;10.85;60.23;102417.66;4982943;28;20038;-67
2021/03/31 01:31:45;;;;;;;53.55;26.88;;;;;;;10.76;61.35;102413.00;4979015;28;20029;-67
2021/03/31 01:34:37;;;;;;;58.08;28.33;;;;;;;10.66;61.36;102407.50;4984772;28;20524;-68
2021/03/31 01:37:20;;;;;;;54.00;28.27;;;;;;;10.60;62.24;102407.97;4981649;28;20037;-69
2021/03/31 01:39:48;;;;;;;50.63;26.08;;;;;;;10.32;61.20;102380.63;4980666;28;20477;-67
2021/03/31 01:42:15;;;;;;;53.70;26.77;;;;;;;10.44;62.24;102405.59;4981995;28;20022;-67
2021/03/31 01:44:42;;;;;;;55.38;27.40;;;;;;;10.36;62.39;102407.94;4982570;28;20208;-66
2021/03/31 01:47:12;;;;;;;52.70;26.85;;;;;;;10.26;62.82;102402.41;4985494;28;20030;-67
2021/03/31 01:49:39;;;;;;;50.67;26.83;;;;;;;9.99;63.06;102373.28;4988248;28;20038;-67
2021/03/31 01:52:06;;;;;;;55.78;28.25;;;;;;;10.09;63.46;102401.00;4959127;28;20189;-69
2021/03/31 01:54:33;;;;;;;54.50;29.25;;;;;;;10.03;63.74;102404.97;4976428;28;20057;-68
2021/03/31 01:57:00;;;;;;;52.78;27.50;;;;;;;9.95;64.57;102400.19;4978290;28;20031;-68
2021/03/31 01:59:26;;;;;;;56.78;26.77;;;;;;;9.90;63.81;102399.69;4981354;28;20034;-68
2021/03/31 02:01:54;;;;;;;55.60;27.10;;;;;;;9.85;64.29;102393.81;4977898;28;20474;-68
2021/03/31 02:04:23;;;;;;;;;;;;;;;9.78;63.68;102397.84;4983613;28;20096;-68
2021/03/31 02:06:50;;;;;;;54.70;27.52;;;;;;;9.73;64.84;102400.03;4980929;28;19918;-68
2021/03/31 02:09:17;;;;;;;52.73;27.30;;;;;;;9.69;65.25;102401.19;4981302;28;20030;-68
2021/03/31 02:11:44;;;;;;;53.30;27.02;;;;;;;9.63;65.41;102392.69;4979027;28;20039;-68
2021/03/31 02:14:14;;;;;;;55.92;27.65;;;;;;;9.60;64.86;102389.38;4981290;28;20037;-66
2021/03/31 02:16:44;;;;;;;55.10;27.33;;;;;;;9.38;65.18;102358.06;4979783;28;20026;-66
2021/03/31 02:19:17;;;;;;;52.88;26.67;;;;;;;9.53;65.15;102385.44;4973546;28;20039;-68
2021/03/31 02:21:43;;;;;;;56.60;26.80;;;;;;;9.50;64.60;102383.81;4972509;28;20088;-67
2021/03/31 02:24:13;;;;;;;54.25;28.35;;;;;;;9.45;65.30;102384.16;4981902;28;20489;-68
2021/03/31 02:26:38;;;;;;;57.22;28.15;;;;;;;9.42;65.32;102386.19;4983751;28;20027;-67
2021/03/31 02:29:04;;;;;;;51.63;27.48;;;;;;;9.39;65.55;102381.94;4981692;28;20038;-67
2021/03/31 02:31:30;;;;;;;60.28;28.50;;;;;;;9.36;65.73;102374.16;4971486;28;20058;-67
2021/03/31 02:33:56;;;;;;;54.03;27.80;;;;;;;9.15;66.47;102340.09;4973542;28;20039;-67
2021/03/31 02:36:23;;;;;;;55.60;28.75;;;;;;;9.30;66.56;102370.09;4981195;28;20395;-69
2021/03/31 02:38:50;;;;;;;56.25;28.60;;;;;;;9.26;67.36;102368.63;4975529;28;20149;-67
2021/03/31 02:41:16;;;;;;;55.30;27.80;;;;;;;9.21;67.03;102368.09;4971982;28;20031;-69
2021/03/31 02:43:43;;;;;;;55.92;28.67;;;;;;;9.18;67.68;102361.16;4985077;28;20539;-68
2021/03/31 02:46:14;;;;;;;52.67;27.83;;;;;;;9.15;67.42;102360.53;4986010;28;20042;-68
2021/03/31 02:48:43;;;;;;;53.83;28.60;;;;;;;9.10;67.12;102360.84;4983729;28;20061;-68
2021/03/31 02:51:08;;;;;;;;;;;;;;;9.06;67.85;102353.19;4980420;28;20173;-68
2021/03/31 02:53:34;;;;;;;56.30;29.58;;;;;;;9.01;68.01;102351.69;4983373;28;20012;-66
2021/03/31 02:56:04;;;;;;;52.92;28.00;;;;;;;8.98;68.31;102357.22;4981973;28;20050;-68
2021/03/31 02:58:30;;;;;;;58.17;29.10;;;;;;;8.96;68.58;102355.63;4983959;28;20049;-67
2021/03/31 03:00:56;;;;;;;56.35;28.63;;;;;;;8.93;68.46;102351.38;4982292;28;20206;-67
2021/03/31 03:03:22;;;;;;;59.92;29.20;;;;;;;8.91;68.87;102358.59;4982157;28;20035;-67
2021/03/31 03:05:48;;;;;;;52.65;28.23;;;;;;;8.87;69.23;102357.09;4991038;28;20038;-69
2021/03/31 03:08:16;;;;;;;52.75;28.05;;;;;;;8.84;69.01;102351.97;4967329;28;20046;-69
2021/03/31 03:10:42;;;;;;;51.08;27.52;;;;;;;8.80;70.20;102340.69;4983339;28;20246;-69
2021/03/31 03:13:08;;;;;;;53.38;28.17;;;;;;;8.79;69.67;102340.81;4983564;28;20049;-67
2021/03/31 03:15:35;;;;;;;55.70;27.30;;;;;;;8.77;70.19;102340.88;4984977;28;20042;-67
2021/03/31 03:18:00;;;;;;;53.83;27.73;;;;;;;8.72;70.33;102341.22;4986338;28;20628;-67
2021/03/31 03:20:27;;;;;;;56.75;28.75;;;;;;;8.68;69.91;102336.19;4985767;28;20194;-67
2021/03/31 03:22:55;;;;;;;51.40;26.67;;;;;;;8.65;70.90;102336.41;4983285;28;20093;-69
2021/03/31 03:25:24;;;;;;;;;;;;;;;8.60;70.80;102335.88;4994639;28;20049;-67
2021/03/31 03:27:50;;;;;;;56.78;27.42;;;;;;;8.54;71.69;102335.31;4984361;28;19921;-67
2021/03/31 03:30:18;;;;;;;55.95;27.58;;;;;;;8.52;71.42;102333.72;4987998;28;20101;-67
2021/03/31 03:32:51;;;;;;;54.28;26.70;;;;;;;8.49;71.63;102325.94;4986622;28;20025;-68
2021/03/31 03:35:21;;;;;;;52.88;27.75;;;;;;;8.45;71.68;102327.06;4989448;28;20038;-69
2021/03/31 03:37:48;;;;;;;52.75;27.33;;;;;;;8.40;72.16;102320.28;4983488;28;20065;-67
2021/03/31 03:40:15;;;;;;;58.75;28.40;;;;;;;8.38;73.08;102319.50;4986236;28;20119;-67
2021/03/31 03:42:41;;;;;;;53.88;28.33;;;;;;;8.36;73.46;102316.09;4982960;28;20041;-68
2021/03/31 03:45:07;;;;;;;51.28;27.17;;;;;;;8.30;74.14;102313.84;4989830;28;20026;-66
2021/03/31 03:47:34;;;;;;;57.40;29.00;;;;;;;8.21;73.91;102306.47;4983267;28;20117;-67
2021/03/31 03:50:03;;;;;;;55.13;27.70;;;;;;;7.93;74.88;102260.44;4983160;28;20038;-68
2021/03/31 03:52:29;;;;;;;53.63;27.75;;;;;;;8.29;75.68;102317.44;4985643;28;20034;-67
2021/03/31 03:54:55;;;;;;;60.05;29.42;;;;;;;8.29;76.48;102320.09;4983302;28;20022;-66
2021/03/31 03:57:25;;;;;;;57.88;30.52;;;;;;;8.28;76.12;102319.28;4981953;28;20101;-66
2021/03/31 03:59:51;;;;;;;57.80;30.00;;;;;;;8.20;76.02;102302.09;4969796;28;20473;-66
2021/03/31 04:02:17;;;;;;;55.00;29.67;;;;;;;8.24;76.15;102320.41;4979869;28;20184;-66
2021/03/31 04:04:42;;;;;;;56.65;29.88;;;;;;;8.04;75.99;102291.66;4987687;28;20049;-67
2021/03/31 04:07:08;;;;;;;58.42;29.10;;;;;;;8.10;75.12;102307.19;4980195;28;20113;-68
2021/03/31 04:09:34;;;;;;;56.22;29.30;;;;;;;8.15;75.93;102306.88;4983113;28;20031;-67
2021/03/31 04:12:00;;;;;;;58.63;28.88;;;;;;;8.13;76.34;102309.63;4983603;28;20023;-66
2021/03/31 04:14:26;;;;;;;51.65;29.15;;;;;;;8.13;75.81;102304.31;4983197;28;20516;-69
2021/03/31 04:16:55;;;;;;;56.70;29.73;;;;;;;8.11;75.54;102298.25;4978891;28;20104;-70
2021/03/31 04:19:23;;;;;;;56.85;29.23;;;;;;;8.09;75.47;102302.81;4980422;28;20034;-69
2021/03/31 04:21:48;;;;;;;59.80;29.60;;;;;;;8.07;74.99;102304.75;4991195;28;20038;-67
2021/03/31 04:24:15;;;;;;;56.80;29.17;;;;;;;8.05;74.17;102304.00;4985945;28;20305;-67
2021/03/31 04:26:41;;;;;;;56.47;29.70;;;;;;;8.03;74.67;102305.88;4979948;28;20049;-67
2021/03/31 04:29:08;;;;;;;56.58;29.40;;;;;;;8.00;75.13;102301.63;4984548;28;20506;-67
2021/03/31 04:31:36;;;;;;;54.70;29.83;;;;;;;8.01;74.81;102299.81;4977454;28;20113;-67
2021/03/31 04:34:02;;;;;;;58.00;30.48;;;;;;;7.96;74.54;102298.28;4980028;28;20470;-67
2021/03/31 04:36:29;;;;;;;58.88;30.65;;;;;;;7.97;74.07;102296.50;4979205;28;20045;-67
2021/03/31 04:38:54;;;;;;;56.38;30.05;;;;;;;7.70;73.13;102256.63;4996633;28;20477;-67
2021/03/31 04:41:20;;;;;;;58.35;30.92;;;;;;;7.90;73.51;102292.53;4984966;28;20085;-66
2021/03/31 04:43:46;;;;;;;51.00;28.73;;;;;;;7.90;73.55;102295.19;4983797;28;20054;-69
2021/03/31 04:46:11;;;;;;;61.22;30.55;;;;;;;7.92;73.91;102291.50;4987654;28;20030;-68
2021/03/31 04:48:38;;;;;;;58.95;29.33;;;;;;;7.93;73.66;102300.31;4989912;28;20309;-68
2021/03/31 04:51:05;;;;;;;60.08;30.55;;;;;;;7.95;72.69;102298.41;4984435;28;20113;-67
2021/03/31 04:53:31;;;;;;;55.85;29.50;;;;;;;7.75;72.48;102267.81;4985250;28;20034;-67
2021/03/31 04:55:56;;;;;;;60.33;31.25;;;;;;;7.97;72.42;102291.19;4984630;28;20122;-67
2021/03/31 04:58:22;;;;;;;58.33;30.45;;;;;;;7.49;72.26;102218.06;4981178;28;20117;-69
2021/03/31 05:00:47;;;;;;;55.58;30.23;;;;;;;8.00;71.40;102298.97;4983890;28;20022;-67
2021/03/31 05:03:13;;;;;;;60.80;30.48;;;;;;;8.04;71.03;102297.78;4975050;28;20347;-67
2021/03/31 05:05:39;;;;;;;57.38;30.73;;;;;;;8.18;70.25;102291.59;4979788;28;20489;-67
2021/03/31 05:08:06;;;;;;;54.63;28.70;;;;;;;8.33;68.81;102280.88;4980707;28;20097;-69
2021/03/31 05:10:32;;;;;;;55.15;28.65;;;;;;;8.37;68.00;102263.75;4977876;28;20672;-69
2021/03/31 05:12:57;;;;;;;57.53;29.77;;;;;;;8.42;67.14;102262.47;4982810;28;20034;-67
2021/03/31 05:15:23;;;;;;;60.10;29.13;;;;;;;8.60;66.98;102274.69;4983832;28;20042;-67
2021/03/31 05:17:48;;;;;;;60.05;29.65;;;;;;;8.64;67.00;102278.81;4982342;28;20182;-69
2021/03/31 05:20:14;;;;;;;58.03;30.15;;;;;;;8.72;65.90;102274.66;4963309;28;20431;-66
2021/03/31 05:22:40;;;;;;;55.13;29.30;;;;;;;8.65;64.50;102248.59;4980551;28;20413;-70
2021/03/31 05:25:07;;;;;;;58.50;29.50;;;;;;;8.93;64.52;102278.59;4984909;28;20030;-70
2021/03/31 05:27:33;;;;;;;56.22;29.42;;;;;;;9.06;63.96;102275.94;4960070;28;20034;-70
2021/03/31 05:29:59;;;;;;;59.78;29.35;;;;;;;9.14;63.20;102274.47;4985777;28;20093;-67
2021/03/31 05:32:24;;;;;;;58.20;30.08;;;;;;;9.18;63.44;102269.75;4982497;28;20027;-67
2021/03/31 05:34:50;;;;;;;57.63;28.95;;;;;;;9.08;62.56;102248.25;4981018;28;20489;-68
2021/03/31 05:37:15;;;;;;;57.53;30.83;;;;;;;9.24;62.46;102273.78;4976308;28;20034;-67
2021/03/31 05:39:41;;;;;;;61.65;30.55;;;;;;;9.34;61.77;102272.16;4981127;28;20288;-70
2021/03/31 05:42:10;;;;;;;64.55;32.95;;;;;;;9.44;62.17;102275.88;4979876;28;20109;-67
2021/03/31 05:44:37;;;;;;;60.30;31.02;;;;;;;9.40;61.57;102263.75;4979145;28;20026;-68
2021/03/31 05:47:05;;;;;;;58.92;30.40;;;;;;;9.47;61.17;102266.81;4987188;28;20038;-70
2021/03/31 05:49:30;;;;;;;62.00;29.02;;;;;;;9.53;61.13;102274.34;4981481;28;20137;-67
2021/03/31 05:51:57;;;;;;;55.65;29.25;;;;;;;9.53;61.08;102269.03;4977429;28;20509;-68
2021/03/31 05:54:24;;;;;;;59.63;29.77;;;;;;;9.54;61.24;102264.56;4961846;28;20041;-68
2021/03/31 05:56:54;;;;;;;61.22;30.13;;;;;;;9.50;60.87;102262.13;4984289;28;20088;-69
2021/03/31 05:59:20;;;;;;;75.75;34.45;;;;;;;9.49;61.64;102262.25;4978996;28;20038;-68
2021/03/31 06:01:49;;;;;;;58.38;32.28;;;;;;;9.51;62.88;102265.63;4977475;28;20181;-68
2021/03/31 06:04:15;;;;;;;56.58;29.95;;;;;;;9.51;61.29;102268.28;4982060;28;20042;-68
2021/03/31 06:06:41;;;;;;;57.83;29.48;;;;;;;9.40;62.02;102246.91;4984385;28;20030;-70
2021/03/31 06:09:07;;;;;;;57.65;30.73;;;;;;;9.56;63.12;102270.63;4981513;28;20057;-70
2021/03/31 06:11:50;;;;;;;60.40;30.65;;;;;;;9.56;63.38;102281.28;4977478;28;20038;-68
2021/03/31 06:14:30;;;;;;;58.90;30.95;;;;;;;9.60;62.51;102280.09;4979877;28;20038;-69
2021/03/31 06:17:13;;;;;;;55.00;30.15;;;;;;;9.60;63.48;102274.75;4982190;28;20400;-70
2021/03/31 06:19:40;;;;;;;58.83;30.95;;;;;;;9.60;62.11;102274.75;4981866;28;20018;-71
2021/03/31 06:25:21;;;;;;;61.58;30.60;;;;;;;9.87;60.47;102274.56;4984481;28;20029;-70
2021/03/31 06:28:01;;;;;;;66.32;31.20;;;;;;;10.03;59.40;102270.75;4981146;28;20022;-68
2021/03/31 06:30:30;;;;;;;68.78;35.03;;;;;;;10.21;59.10;102274.69;4973523;28;20119;-70
2021/03/31 06:32:56;;;;;;;66.22;32.88;;;;;;;10.29;58.50;102254.59;4976334;28;20374;-69
2021/03/31 06:35:24;;;;;;;60.67;30.45;;;;;;;10.43;58.55;102267.78;4987592;28;20037;-69
2021/03/31 06:37:50;;;;;;;60.78;30.45;;;;;;;10.63;57.74;102274.25;4965142;28;20026;-68
2021/03/31 06:40:36;;;;;;;58.45;31.38;;;;;;;10.90;57.29;102261.53;4980752;28;20123;-69
2021/03/31 06:43:20;;;;;;;61.80;31.77;;;;;;;11.85;54.56;102261.06;4981510;28;20076;-68
2021/03/31 06:45:53;;;;;;;57.55;30.75;;;;;;;12.88;51.74;102225.69;4981840;28;20074;-68
2021/03/31 06:48:23;;;;;;;57.67;32.72;;;;;;;13.96;48.86;102252.78;4982073;28;20167;-69
2021/03/31 06:50:48;;;;;;;58.72;33.30;;;;;;;14.91;45.76;102210.75;4984037;28;20034;-70
2021/03/31 06:53:24;;;;;;;56.05;33.38;;;;;;;16.16;43.06;102247.88;4981671;28;20049;-68
2021/03/31 06:55:57;;;;;;;51.25;32.35;;;;;;;16.78;41.99;102222.69;4984742;28;20504;-70
2021/03/31 06:58:23;;;;;;;54.72;33.55;;;;;;;17.49;39.89;102214.38;4980378;28;20022;-71
2021/03/31 07:00:48;;;;;;;52.55;32.28;;;;;;;18.42;38.01;102245.66;4972333;28;20072;-70
2021/03/31 07:03:14;;;;;;;51.00;32.75;;;;;;;18.61;37.63;102239.03;4990737;28;20043;-69
2021/03/31 07:05:41;;;;;;;54.33;33.50;;;;;;;19.08;36.90;102242.78;4983768;28;20035;-67
2021/03/31 07:08:09;;;;;;;52.85;33.72;;;;;;;19.50;36.07;102250.69;4982967;28;20616;-67
2021/03/31 07:10:52;;;;;;;47.20;32.05;;;;;;;20.14;33.99;102239.59;4975174;28;20018;-67
2021/03/31 07:13:33;;;;;;;48.13;32.50;;;;;;;20.30;34.24;102244.03;4975425;28;20030;-67
2021/03/31 07:16:01;;;;;;;45.70;32.47;;;;;;;20.53;33.55;102253.94;4986719;28;20038;-68
2021/03/31 07:18:28;;;;;;;46.67;32.45;;;;;;;20.89;32.42;102247.84;4974497;28;20038;-69
2021/03/31 07:20:54;;;;;;;48.53;32.90;;;;;;;21.04;32.44;102246.97;4976481;28;20667;-68
2021/03/31 07:23:21;;;;;;;50.60;33.15;;;;;;;21.03;32.12;102250.72;4976058;28;20034;-68
2021/03/31 07:25:48;;;;;;;49.60;33.53;;;;;;;21.48;31.04;102256.06;4975693;28;20030;-68
2021/03/31 07:28:18;;;;;;;48.67;32.75;;;;;;;21.32;31.10;102251.69;4976506;28;20022;-68
2021/03/31 07:30:45;;;;;;;45.75;32.45;;;;;;;21.36;30.99;102258.41;4971888;28;20449;-68
2021/03/31 07:33:18;;;;;;;50.20;32.35;;;;;;;21.22;31.87;102255.56;4982018;28;20042;-68
2021/03/31 07:35:45;;;;;;;48.90;32.53;;;;;;;20.86;32.72;102239.22;4978622;28;20056;-68
2021/03/31 07:38:18;;;;;;;49.20;32.95;;;;;;;20.45;33.24;102252.16;4972226;28;20085;-68
2021/03/31 07:40:46;;;;;;;44.45;31.98;;;;;;;19.40;35.80;102253.63;4975088;28;20326;-68
2021/03/31 07:43:17;;;;;;;48.17;32.33;;;;;;;18.95;36.68;102251.44;4968136;28;20068;-68
2021/03/31 07:45:46;;;;;;;49.80;31.58;;;;;;;18.48;37.50;102223.34;4964383;28;21935;-68
2021/03/31 07:48:12;;;;;;;49.30;31.80;;;;;;;18.36;39.42;102244.50;4964456;28;20583;-68
2021/03/31 07:50:38;;;;;;;46.95;31.98;;;;;;;19.09;38.67;102255.31;4970634;28;20031;-68
2021/03/31 07:53:06;;;;;;;50.15;33.75;;;;;;;19.97;37.71;102247.00;4968793;28;20505;-68
2021/03/31 07:55:49;;;;;;;46.97;32.30;;;;;;;20.41;36.97;102242.75;4979719;28;20038;-68
2021/03/31 07:58:21;;;;;;;45.75;30.80;;;;;;;21.52;35.12;102251.91;4977799;28;20049;-68
2021/03/31 08:00:47;;;;;;;45.25;31.55;;;;;;;22.21;34.30;102260.56;4973406;28;20203;-68
2021/03/31 08:03:19;;;;;;;42.75;32.58;;;;;;;22.47;33.81;102254.50;4976666;28;20033;-68
2021/03/31 08:06:03;;;;;;;41.53;31.83;;;;;;;22.85;33.36;102254.13;4980682;28;20460;-68
2021/03/31 08:08:29;;;;;;;41.17;31.27;;;;;;;22.92;33.75;102245.97;4974995;28;20031;-67
2021/03/31 08:10:59;;;;;;;42.60;32.03;;;;;;;23.42;33.16;102261.28;4974429;28;20040;-67
2021/03/31 08:13:26;;;;;;;43.38;31.20;;;;;;;23.39;33.19;102263.38;4973168;28;20034;-68
2021/03/31 08:15:52;;;;;;;41.50;31.17;;;;;;;23.62;33.11;102264.88;4979794;28;20165;-68
2021/03/31 08:18:18;;;;;;;41.22;30.77;;;;;;;24.08;32.22;102267.91;4979241;28;20030;-67
2021/03/31 08:20:45;;;;;;;41.33;31.33;;;;;;;24.25;32.04;102249.22;4978518;28;20038;-68
2021/03/31 08:23:11;;;;;;;44.67;32.30;;;;;;;24.35;31.83;102230.56;4979720;28;20043;-68
2021/03/31 08:25:37;;;;;;;38.58;30.23;;;;;;;24.73;30.54;102226.28;4966490;28;20035;-67
2021/03/31 08:28:08;;;;;;;39.55;31.02;;;;;;;25.30;29.89;102255.69;4982615;28;20026;-68
2021/03/31 08:30:36;;;;;;;43.47;32.38;;;;;;;25.15;29.94;102245.88;4978052;28;20289;-68
2021/03/31 08:33:03;;;;;;;43.22;32.58;;;;;;;25.21;30.23;102247.75;4977765;28;20018;-67
2021/03/31 08:35:29;;;;;;;39.95;31.05;;;;;;;24.59;31.52;102179.09;4982582;28;20120;-68
2021/03/31 08:37:55;;;;;;;38.72;31.90;;;;;;;25.00;31.83;102253.50;4976659;28;20026;-70
2021/03/31 08:40:21;;;;;;;38.53;31.15;;;;;;;25.43;30.65;102244.72;4979600;28;20056;-70
2021/03/31 08:42:54;;;;;;;42.20;31.83;;;;;;;25.25;30.72;102242.69;4980407;28;20026;-68
2021/03/31 08:45:39;;;;;;;39.75;32.00;;;;;;;24.90;32.50;102223.94;4979693;28;20149;-68
2021/03/31 08:48:05;;;;;;;39.65;32.42;;;;;;;25.10;31.28;102234.78;4986458;28;20081;-69
2021/03/31 08:50:34;;;;;;;44.05;32.95;;;;;;;25.46;30.12;102203.28;4973026;28;20046;-68
2021/03/31 08:53:03;;;;;;;40.45;33.72;;;;;;;25.57;30.53;102240.03;4989124;28;20033;-68
2021/03/31 08:55:34;;;;;;;39.25;32.60;;;;;;;25.53;29.50;102206.81;4991473;28;20108;-68
2021/03/31 08:58:03;;;;;;;39.13;34.33;;;;;;;25.49;31.07;102241.13;4978394;28;20030;-68
2021/03/31 09:00:29;;;;;;;39.78;34.22;;;;;;;25.83;30.79;102224.47;4987800;28;20022;-68
2021/03/31 09:03:04;;;;;;;38.15;32.88;;;;;;;26.01;30.99;102220.09;4977785;28;20045;-68
2021/03/31 09:05:30;;;;;;;43.00;34.63;;;;;;;26.08;30.04;102232.66;4976439;28;20046;-68
2021/03/31 09:08:00;;;;;;;43.13;33.97;;;;;;;26.62;29.11;102231.34;4978044;28;20513;-68
2021/03/31 09:10:27;;;;;;;42.08;35.80;;;;;;;26.88;28.90;102233.78;4971999;28;20410;-68
2021/03/31 09:12:54;;;;;;;42.00;34.15;;;;;;;26.86;29.45;102226.88;4981045;28;20048;-68
2021/03/31 09:15:19;;;;;;;39.88;34.45;;;;;;;27.29;28.15;102231.34;4975807;28;20026;-69
2021/03/31 09:17:47;;;;;;;43.38;34.67;;;;;;;27.03;29.46;102224.34;4982200;28;20082;-68
2021/03/31 09:20:17;;;;;;;40.95;34.38;;;;;;;27.33;28.29;102207.91;4978029;28;20053;-68
2021/03/31 09:22:43;;;;;;;44.20;34.50;;;;;;;27.11;28.38;102204.84;4977551;28;20077;-69
2021/03/31 09:25:11;;;;;;;48.35;33.78;;;;;;;27.18;28.70;102216.56;4978158;28;20043;-69
2021/03/31 09:27:37;;;;;;;42.55;34.53;;;;;;;27.55;28.12;102220.28;4983858;28;20034;-68
2021/03/31 09:30:14;;;;;;;41.28;33.90;;;;;;;27.15;29.70;102214.28;4979935;28;20026;-68
2021/03/31 09:32:51;;;;;;;38.65;32.95;;;;;;;27.14;30.58;102220.81;4981545;28;20030;-69
2021/03/31 09:35:18;;;;;;;40.88;33.42;;;;;;;26.99;29.69;102182.03;4983096;28;20045;-74
2021/03/31 09:37:46;;;;;;;40.77;33.47;;;;;;;26.61;30.12;102222.28;4982276;28;20038;-70
2021/03/31 09:40:27;;;;;;;37.50;33.42;;;;;;;25.85;31.15;102224.25;4976073;28;20041;-69
2021/03/31 09:42:55;;;;;;;42.55;34.78;;;;;;;25.42;32.29;102226.66;4977511;28;20050;-69
2021/03/31 09:45:26;;;;;;;44.88;35.55;;;;;;;25.08;32.39;102201.41;4983110;28;20046;-70
2021/03/31 09:47:52;;;;;;;44.72;34.65;;;;;;;24.48;35.19;102204.31;4979377;28;20030;-69
2021/03/31 09:50:23;;;;;;;39.55;34.72;;;;;;;24.25;35.25;102214.63;4982804;28;20038;-70
2021/03/31 09:52:53;;;;;;;43.80;34.60;;;;;;;23.91;35.20;102212.94;4984042;28;20034;-69
2021/03/31 09:55:19;;;;;;;43.28;34.63;;;;;;;23.41;36.62;102214.16;4976879;28;20038;-69
2021/03/31 09:57:48;;;;;;;45.20;34.47;;;;;;;23.32;37.25;102209.91;4977719;28;20050;-67
2021/03/31 10:00:16;;;;;;;48.08;35.95;;;;;;;23.16;37.24;102214.66;4992699;28;20154;-67
2021/03/31 10:02:42;;;;;;;;;;;;;;;22.89;37.59;102205.56;4980406;28;20038;-67
2021/03/31 10:05:18;;;;;;;46.38;34.47;;;;;;;22.92;37.73;102202.44;4979805;28;19926;-67
2021/03/31 10:07:58;;;;;;;44.55;34.83;;;;;;;22.83;38.42;102199.03;4976988;28;20117;-67
2021/03/31 10:10:49;;;;;;;45.65;34.78;;;;;;;22.56;37.65;102189.91;4974901;28;20052;-68
2021/03/31 10:13:16;;;;;;;44.22;33.85;;;;;;;22.44;38.10;102176.03;4980397;28;20501;-68
2021/03/31 10:15:54;;;;;;;46.43;34.87;;;;;;;22.36;38.04;102192.47;4979660;28;20612;-67
2021/03/31 10:18:20;;;;;;;43.70;33.20;;;;;;;22.12;38.83;102149.22;4982539;28;20030;-68
2021/03/31 10:20:47;;;;;;;47.17;32.75;;;;;;;22.41;36.89;102190.84;4975241;28;20026;-68
2021/03/31 10:23:43;;;;;;;47.92;34.10;;;;;;;22.38;39.72;102193.09;4983921;28;20046;-68
2021/03/31 10:26:24;;;;;;;46.40;33.83;;;;;;;22.55;36.83;102190.94;4974850;28;20050;-67
2021/03/31 10:28:51;;;;;;;44.13;32.97;;;;;;;22.51;38.44;102200.56;4977395;28;20034;-67
2021/03/31 10:31:36;;;;;;;49.53;34.23;;;;;;;22.47;39.35;102189.22;4964966;28;20042;-67
2021/03/31 10:34:03;;;;;;;47.75;33.97;;;;;;;22.44;39.79;102200.50;4975423;28;20270;-68
2021/03/31 10:36:46;;;;;;;50.53;36.25;;;;;;;22.50;39.94;102188.81;4975941;28;20062;-67
2021/03/31 10:50:25;;;;;;;45.65;34.20;;;;;;;22.36;40.09;102187.03;4976609;28;20134;-67
2021/03/31 10:52:53;;;;;;;47.15;32.47;;;;;;;22.28;38.85;102169.84;4967520;28;20034;-69
2021/03/31 10:55:18;;;;;;;;;;;;;;;22.43;38.26;102177.06;4986590;28;20113;-69
2021/03/31 10:57:43;;;;;;;39.70;27.75;;;;;;;22.51;36.40;102176.06;4980649;28;20028;-65
2021/03/31 11:00:09;;;;;;;46.47;31.45;;;;;;;22.30;37.67;102137.00;4983298;28;20023;-67
2021/03/31 11:02:35;;;;;;;46.20;32.70;;;;;;;22.34;39.47;102157.31;4977592;28;20109;-68
2021/03/31 11:05:01;;;;;;;39.63;30.23;;;;;;;22.30;39.16;102150.59;4981445;28;20037;-72
2021/03/31 11:07:26;;;;;;;46.22;32.78;;;;;;;22.44;38.24;102173.31;4971219;28;20034;-70
2021/03/31 11:09:52;;;;;;;42.00;31.65;;;;;;;22.40;39.46;102169.28;4979698;28;20118;-68
2021/03/31 11:12:17;;;;;;;42.50;30.20;;;;;;;22.46;37.28;102174.78;4973370;28;20567;-65
2021/03/31 11:14:43;;;;;;;41.35;30.00;;;;;;;22.35;38.67;102163.59;4977573;28;20034;-68
2021/03/31 11:17:18;;;;;;;45.22;31.63;;;;;;;22.23;39.99;102160.59;4979275;28;20031;-67
2021/03/31 11:27:38;;;;;;;39.20;29.55;;;;;;;22.69;38.31;102162.75;4980871;28;20121;-65
2021/03/31 11:30:08;;;;;;;46.00;29.95;;;;;;;22.72;38.12;102159.63;4980088;28;20529;-68
2021/03/31 11:32:33;;;;;;;41.60;28.65;;;;;;;22.82;37.13;102148.38;4982279;28;20121;-66
2021/03/31 11:34:59;;;;;;;45.78;28.65;;;;;;;22.81;37.98;102141.25;4984848;28;20031;-65
2021/03/31 11:37:25;;;;;;;41.72;28.75;;;;;;;22.77;38.02;102143.56;4983992;28;20022;-66
2021/03/31 11:39:50;;;;;;;46.28;29.52;;;;;;;22.66;37.29;102138.69;4980124;28;20088;-65
2021/03/31 11:42:16;;;;;;;43.50;30.45;;;;;;;22.57;38.38;102138.03;4974540;28;20037;-66
2021/03/31 11:44:41;;;;;;;43.25;27.75;;;;;;;22.60;35.73;102110.41;4979180;28;20555;-65